createdAt,value
2023-02-13T00:01:45.809Z,48.45
2023-02-13T00:06:48.161Z,62.70
2023-02-13T00:11:50.186Z,55.30
2023-02-13T00:16:52.181Z,53.50
2023-02-13T00:21:54.300Z,54.25
2023-02-13T00:26:56.690Z,79.22
2023-02-13T00:32:00.464Z,106.72
2023-02-13T00:37:02.816Z,68.28
2023-02-13T00:42:06.354Z,65.65
2023-02-13T00:47:08.549Z,66.28
2023-02-13T00:52:10.644Z,77.22
2023-02-13T00:57:12.870Z,74.95
2023-02-13T01:02:15.057Z,62.63
2023-02-13T01:07:17.299Z,63.22
2023-02-13T01:12:19.649Z,69.40
2023-02-13T01:17:21.746Z,54.72
2023-02-13T01:22:23.835Z,55.17
2023-02-13T01:27:28.673Z,60.88
2023-02-13T01:32:31.133Z,56.20
2023-02-13T01:37:34.056Z,50.55
2023-02-13T01:42:36.399Z,53.05
2023-02-13T01:47:45.194Z,53.70
2023-02-13T01:52:56.336Z,52.97
2023-02-13T01:58:05.830Z,95.25
2023-02-13T02:03:15.885Z,51.03
2023-02-13T02:08:19.704Z,51.80
2023-02-13T02:13:27.564Z,52.63
2023-02-13T02:18:30.464Z,55.75
2023-02-13T02:23:52.905Z,56.97
2023-02-13T02:29:06.666Z,47.63
2023-02-13T02:34:27.270Z,46.53
2023-02-13T02:39:49.300Z,54.53
2023-02-13T02:45:06.170Z,44.25
2023-02-13T02:50:33.479Z,48.40
2023-02-13T02:55:47.307Z,52.05
2023-02-13T03:01:11.351Z,51.65
2023-02-13T03:06:40.594Z,50.28
2023-02-13T03:12:07.688Z,43.13
2023-02-13T03:17:31.671Z,45.35
2023-02-13T03:23:08.300Z,50.20
2023-02-13T03:28:29.079Z,56.40
2023-02-13T03:33:56.935Z,47.40
2023-02-13T03:39:08.213Z,45.92
2023-02-13T03:44:19.613Z,48.80
2023-02-13T03:50:05.840Z,49.95
2023-02-13T03:55:32.385Z,60.38
2023-02-13T04:00:43.296Z,49.33
2023-02-13T04:06:07.109Z,49.83
2023-02-13T04:11:27.681Z,63.53
2023-02-13T04:16:39.132Z,62.45
2023-02-13T04:21:41.718Z,63.65
2023-02-13T04:26:46.001Z,66.65
2023-02-13T04:31:48.580Z,79.82
2023-02-13T04:36:50.928Z,56.75
2023-02-13T04:41:53.079Z,57.72
2023-02-13T04:46:55.433Z,61.75
2023-02-13T04:51:57.794Z,69.50
2023-02-13T04:56:59.885Z,59.45
2023-02-13T05:02:02.019Z,62.65
2023-02-13T05:07:04.126Z,57.58
2023-02-13T05:12:06.658Z,63.95
2023-02-13T05:17:09.291Z,60.50
2023-02-13T05:22:30.492Z,59.00
2023-02-13T05:27:32.543Z,57.97
2023-02-13T05:32:34.799Z,76.25
2023-02-13T05:37:37.144Z,68.45
2023-02-13T05:42:40.033Z,76.47
2023-02-13T05:47:42.378Z,72.75
2023-02-13T05:52:44.691Z,79.80
2023-02-13T05:57:46.744Z,72.53
2023-02-13T06:02:48.818Z,80.55
2023-02-13T06:07:51.038Z,80.65
2023-02-13T06:12:53.539Z,77.88
2023-02-13T06:17:55.931Z,146.05
2023-02-13T06:22:58.170Z,89.53
2023-02-13T06:28:00.479Z,86.28
2023-02-13T06:33:02.876Z,88.68
2023-02-13T06:38:05.047Z,90.57
2023-02-13T06:43:07.113Z,95.10
2023-02-13T06:48:09.725Z,96.30
2023-02-13T06:53:12.177Z,94.70
2023-02-13T06:58:14.217Z,96.00
2023-02-13T07:03:16.292Z,92.55
2023-02-13T07:08:19.500Z,82.80
2023-02-13T07:13:21.839Z,71.75
2023-02-13T07:18:23.883Z,51.47
2023-02-13T07:23:25.891Z,52.05
2023-02-13T07:28:29.256Z,40.92
2023-02-13T07:33:32.066Z,40.25
2023-02-13T07:38:34.218Z,44.28
2023-02-13T07:43:36.377Z,25.75
2023-02-13T07:48:38.882Z,21.98
2023-02-13T07:53:41.198Z,25.20
2023-02-13T07:58:45.043Z,20.33
2023-02-13T08:03:51.695Z,20.13
2023-02-13T08:09:13.809Z,23.83
2023-02-13T08:14:16.298Z,24.75
2023-02-13T08:19:18.370Z,20.70
2023-02-13T08:24:20.699Z,25.77
2023-02-13T08:29:23.129Z,23.83
2023-02-13T08:34:25.343Z,22.13
2023-02-13T08:39:27.456Z,28.08
2023-02-13T08:44:29.476Z,28.05
2023-02-13T08:49:31.751Z,35.75
2023-02-13T08:54:36.538Z,21.00
2023-02-13T15:51:27.513Z,76.18
2023-02-13T15:56:31.164Z,144.63
2023-02-13T16:01:33.674Z,231.63
2023-02-13T16:06:36.418Z,195.45
2023-02-13T16:11:40.345Z,115.57
2023-02-13T16:16:55.234Z,76.85
2023-02-13T16:22:02.053Z,64.70
2023-02-13T16:27:04.689Z,144.02
2023-02-13T16:32:18.644Z,55.10
2023-02-13T16:37:39.785Z,51.58
2023-02-13T16:42:47.888Z,70.25
2023-02-13T16:48:02.719Z,54.28
2023-02-13T16:53:05.403Z,56.22
2023-02-13T16:58:18.828Z,52.55
2023-02-13T17:03:21.545Z,60.83
2023-02-13T17:08:23.784Z,70.60
2023-02-13T17:13:25.949Z,68.88
2023-02-13T17:18:29.023Z,59.95
2023-02-13T17:23:31.263Z,72.00
2023-02-13T17:28:33.493Z,79.32
2023-02-13T17:33:39.178Z,81.97
2023-02-13T17:38:41.818Z,80.55
2023-02-13T17:43:44.073Z,58.55
2023-02-13T17:48:46.799Z,99.78
2023-02-13T17:53:50.968Z,76.57
2023-02-13T17:58:53.244Z,73.93
2023-02-13T18:03:55.468Z,77.70
2023-02-13T18:08:57.590Z,68.32
2023-02-13T18:13:59.879Z,60.03
2023-02-13T18:19:02.403Z,60.15
2023-02-13T18:24:04.723Z,61.50
2023-02-13T18:29:07.251Z,70.88
2023-02-13T18:34:09.568Z,68.40
2023-02-13T18:39:11.815Z,80.05
2023-02-13T18:44:23.328Z,69.35
2023-02-13T18:49:29.643Z,70.20
2023-02-13T18:54:32.052Z,100.60
2023-02-13T18:59:34.731Z,68.20
2023-02-13T19:04:38.440Z,71.07
2023-02-13T19:09:40.896Z,58.88
2023-02-13T19:14:44.244Z,64.68
2023-02-13T19:19:48.985Z,66.45
2023-02-13T19:24:51.355Z,87.60
2023-02-13T19:29:53.690Z,81.82
2023-02-13T19:34:56.211Z,75.60
2023-02-13T19:39:58.578Z,81.88
2023-02-13T19:45:05.250Z,69.80
2023-02-13T19:50:08.007Z,61.05
2023-02-13T19:55:10.661Z,56.30
2023-02-13T20:00:13.507Z,84.53
2023-02-13T20:05:15.808Z,45.63
2023-02-13T20:10:18.130Z,55.53
2023-02-13T20:15:21.381Z,38.65
2023-02-13T20:20:23.822Z,49.38
2023-02-13T20:25:29.025Z,44.45
2023-02-13T20:30:31.620Z,68.28
2023-02-13T20:35:33.815Z,45.47
2023-02-13T20:40:36.276Z,30.90
2023-02-13T20:45:38.553Z,50.67
2023-02-13T20:50:41.258Z,52.25
2023-02-13T20:55:43.452Z,52.08
2023-02-13T21:00:45.810Z,36.47
2023-02-13T21:05:49.758Z,34.97
2023-02-13T21:10:52.234Z,42.55
2023-02-13T21:15:59.163Z,45.80
2023-02-13T21:21:01.724Z,41.90
2023-02-13T21:26:09.483Z,52.65
2023-02-13T21:31:15.666Z,50.50
2023-02-13T21:36:18.198Z,51.15
2023-02-13T21:41:21.064Z,62.53
2023-02-13T21:46:24.479Z,52.15
2023-02-13T21:51:28.717Z,54.20
2023-02-13T21:56:36.997Z,65.18
2023-02-13T22:01:39.395Z,66.68
2023-02-13T22:06:41.676Z,64.78
2023-02-13T22:11:44.344Z,57.15
2023-02-13T22:16:46.764Z,54.33
2023-02-13T22:21:49.222Z,51.30
2023-02-13T22:26:51.477Z,55.88
2023-02-13T22:31:53.818Z,54.42
2023-02-13T22:36:56.106Z,53.35
2023-02-13T22:41:58.270Z,44.80
2023-02-13T22:47:00.456Z,53.55
2023-02-13T22:52:02.804Z,55.40
2023-02-13T22:57:05.489Z,55.85
2023-02-13T23:02:09.054Z,49.85
2023-02-13T23:07:12.502Z,47.45
2023-02-13T23:12:33.528Z,48.30
2023-02-13T23:17:54.139Z,55.60
2023-02-13T23:22:56.555Z,57.20
2023-02-13T23:27:58.844Z,52.50
2023-02-13T23:33:01.258Z,54.85
2023-02-13T23:38:03.340Z,52.45
2023-02-13T23:43:05.644Z,47.80
2023-02-13T23:48:08.013Z,58.72
2023-02-13T23:53:10.365Z,50.78
2023-02-13T23:58:12.482Z,52.33
